createdAt,value
2024-01-14T00:00:50.422Z,71.83
2024-01-14T00:03:39.035Z,72.17
2024-01-14T00:06:07.632Z,72.40
2024-01-14T00:08:36.227Z,72.27
2024-01-14T00:11:05.372Z,72.09
2024-01-14T00:13:33.556Z,72.23
2024-01-14T00:16:01.855Z,72.52
2024-01-14T00:18:30.098Z,72.21
2024-01-14T00:20:58.731Z,72.15
2024-01-14T00:23:27.195Z,72.33
2024-01-14T00:25:55.952Z,72.10
2024-01-14T00:28:24.373Z,72.00
2024-01-14T00:30:52.769Z,72.09
2024-01-14T00:33:21.343Z,72.68
2024-01-14T00:35:50.074Z,72.84
2024-01-14T00:38:18.511Z,72.39
2024-01-14T00:40:46.581Z,72.57
2024-01-14T00:43:15.149Z,72.64
2024-01-14T00:45:43.429Z,72.39
2024-01-14T00:48:15.020Z,72.39
2024-01-14T00:50:43.392Z,72.43
2024-01-14T00:53:11.964Z,72.13
2024-01-14T00:55:40.468Z,72.22
2024-01-14T00:58:08.811Z,72.31
2024-01-14T01:00:37.390Z,72.85
2024-01-14T01:03:06.818Z,72.76
2024-01-14T01:05:36.142Z,73.06
2024-01-14T01:08:04.949Z,72.72
2024-01-14T01:10:33.115Z,72.53
2024-01-14T01:13:01.478Z,72.73
2024-01-14T01:15:30.197Z,72.78
2024-01-14T01:17:58.675Z,72.23
2024-01-14T01:20:27.372Z,72.27
2024-01-14T01:22:55.711Z,72.72
2024-01-14T01:25:24.547Z,72.60
2024-01-14T01:27:53.456Z,72.77
2024-01-14T01:30:22.015Z,72.51
2024-01-14T01:32:50.996Z,72.67
2024-01-14T01:35:19.563Z,72.62
2024-01-14T01:37:47.659Z,72.60
2024-01-14T01:40:16.250Z,72.64
2024-01-14T01:42:45.004Z,72.60
2024-01-14T01:45:13.608Z,72.75
2024-01-14T01:47:41.854Z,72.74
2024-01-14T01:50:11.116Z,72.85
2024-01-14T01:52:40.970Z,73.03
2024-01-14T01:55:12.085Z,72.71
2024-01-14T01:57:40.340Z,72.86
2024-01-14T02:00:12.471Z,72.17
2024-01-14T02:02:45.322Z,72.36
2024-01-14T02:05:14.760Z,72.72
2024-01-14T02:07:44.633Z,72.06
2024-01-14T02:10:13.504Z,71.97
2024-01-14T02:12:41.879Z,71.93
2024-01-14T02:15:10.490Z,71.96
2024-01-14T02:17:38.818Z,71.82
2024-01-14T02:20:09.621Z,71.94
2024-01-14T02:22:41.638Z,72.51
2024-01-14T02:25:10.116Z,72.38
2024-01-14T02:27:39.018Z,72.00
2024-01-14T02:30:10.870Z,72.22
2024-01-14T02:32:40.197Z,72.07
2024-01-14T02:35:09.571Z,72.16
2024-01-14T02:37:44.704Z,72.19
2024-01-14T02:40:13.585Z,71.96
2024-01-14T02:42:42.231Z,72.02
2024-01-14T02:45:11.684Z,71.93
2024-01-14T02:47:40.941Z,71.95
2024-01-14T02:50:10.121Z,72.11
2024-01-14T02:52:38.322Z,71.87
2024-01-14T02:55:07.583Z,71.82
2024-01-14T02:57:35.966Z,71.80
2024-01-14T03:00:05.639Z,72.06
2024-01-14T03:02:34.329Z,71.97
2024-01-14T03:05:02.529Z,72.04
2024-01-14T03:07:30.711Z,72.22
2024-01-14T03:09:59.180Z,72.31
2024-01-14T03:12:27.626Z,72.36
2024-01-14T03:14:56.145Z,72.26
2024-01-14T03:17:24.754Z,72.07
2024-01-14T03:19:53.314Z,71.93
2024-01-14T03:22:21.618Z,71.81
2024-01-14T03:24:49.809Z,72.14
2024-01-14T03:27:17.961Z,72.00
2024-01-14T03:29:46.100Z,71.98
2024-01-14T03:32:14.277Z,72.00
2024-01-14T03:34:42.497Z,71.83
2024-01-14T03:37:10.715Z,71.98
2024-01-14T03:39:39.030Z,71.44
2024-01-14T03:42:07.800Z,71.04
2024-01-14T03:44:36.122Z,70.75
2024-01-14T03:47:05.023Z,70.83
2024-01-14T03:49:33.586Z,70.59
2024-01-14T03:52:01.853Z,70.86
2024-01-14T03:54:30.185Z,70.83
2024-01-14T03:56:58.510Z,70.75
2024-01-14T03:59:26.944Z,70.68
2024-01-14T04:01:55.151Z,70.69
2024-01-14T04:04:23.411Z,70.50
2024-01-14T04:06:51.775Z,70.34
2024-01-14T04:09:20.384Z,70.62
2024-01-14T04:11:48.884Z,70.87
2024-01-14T04:14:17.316Z,70.78
2024-01-14T04:16:45.852Z,71.08
2024-01-14T04:19:14.245Z,70.86
2024-01-14T04:21:42.689Z,70.96
2024-01-14T04:24:11.231Z,71.20
2024-01-14T04:26:39.978Z,71.23
2024-01-14T04:29:08.141Z,71.55
2024-01-14T04:31:36.594Z,71.39
2024-01-14T04:34:05.939Z,71.28
2024-01-14T04:36:34.425Z,71.27
2024-01-14T04:39:03.476Z,70.72
2024-01-14T04:41:31.680Z,70.99
2024-01-14T04:44:00.254Z,70.95
2024-01-14T04:46:28.750Z,71.18
2024-01-14T04:48:57.233Z,71.31
2024-01-14T04:51:25.934Z,71.05
2024-01-14T04:53:54.239Z,71.17
2024-01-14T04:56:22.527Z,70.83
2024-01-14T04:58:51.182Z,70.75
2024-01-14T05:01:19.356Z,70.69
2024-01-14T05:03:47.846Z,70.86
2024-01-14T05:06:16.551Z,70.99
2024-01-14T05:08:45.081Z,70.85
2024-01-14T05:11:13.202Z,70.50
2024-01-14T05:13:41.955Z,69.97
2024-01-14T05:16:11.281Z,69.89
2024-01-14T05:18:39.663Z,69.96
2024-01-14T05:21:07.944Z,69.90
2024-01-14T05:23:36.317Z,70.15
2024-01-14T05:26:04.967Z,70.46
2024-01-14T05:28:33.500Z,70.51
2024-01-14T05:31:02.199Z,70.45
2024-01-14T05:33:30.526Z,70.49
2024-01-14T05:35:58.922Z,70.32
2024-01-14T05:38:27.073Z,69.93
2024-01-14T05:40:56.309Z,70.06
2024-01-14T05:43:25.033Z,69.82
2024-01-14T05:45:53.470Z,69.85
2024-01-14T05:48:24.019Z,69.94
2024-01-14T05:50:52.959Z,70.07
2024-01-14T05:53:21.411Z,69.74
2024-01-14T05:55:49.792Z,69.81
2024-01-14T05:58:17.910Z,69.57
2024-01-14T06:00:46.316Z,69.59
2024-01-14T06:03:14.633Z,69.63
2024-01-14T06:05:44.034Z,69.38
2024-01-14T06:08:12.411Z,69.73
2024-01-14T06:10:40.771Z,69.79
2024-01-14T06:13:09.464Z,69.84
2024-01-14T06:15:37.878Z,69.60
2024-01-14T06:18:06.430Z,69.49
2024-01-14T06:20:34.838Z,69.28
2024-01-14T06:23:03.002Z,69.44
2024-01-14T06:25:31.164Z,69.15
2024-01-14T06:27:59.318Z,69.16
2024-01-14T06:30:27.890Z,69.33
2024-01-14T06:32:57.107Z,69.41
2024-01-14T06:35:25.688Z,69.35
2024-01-14T06:37:54.160Z,69.54
2024-01-14T06:40:28.724Z,69.73
2024-01-14T06:43:00.465Z,69.15
2024-01-14T06:45:29.183Z,69.06
2024-01-14T06:47:57.809Z,68.96
2024-01-14T06:50:26.480Z,69.05
2024-01-14T06:52:54.639Z,69.22
2024-01-14T06:55:23.036Z,69.30
2024-01-14T06:57:51.260Z,69.25
2024-01-14T07:00:19.941Z,69.69
2024-01-14T07:02:48.176Z,69.72
2024-01-14T07:05:16.949Z,69.41
2024-01-14T07:07:45.851Z,69.01
2024-01-14T07:10:15.078Z,69.27
2024-01-14T07:12:43.383Z,69.42
2024-01-14T07:15:11.814Z,69.77
2024-01-14T07:17:54.528Z,69.93
2024-01-14T07:20:25.515Z,70.04
2024-01-14T07:22:54.266Z,69.97
2024-01-14T07:25:22.668Z,70.29
2024-01-14T07:27:50.846Z,70.25
2024-01-14T07:30:20.044Z,70.20
2024-01-14T07:32:48.372Z,70.16
2024-01-14T07:35:16.773Z,70.23
2024-01-14T07:37:45.244Z,70.32
2024-01-14T07:40:14.110Z,69.78
2024-01-14T07:42:42.597Z,69.77
2024-01-14T07:45:11.400Z,70.19
2024-01-14T07:47:40.313Z,70.46
2024-01-14T07:50:09.522Z,70.34
2024-01-14T07:52:37.705Z,70.24
2024-01-14T07:55:06.343Z,70.09
2024-01-14T07:57:35.695Z,69.84
2024-01-14T08:00:05.044Z,69.64
2024-01-14T08:02:40.565Z,69.61
2024-01-14T08:05:13.890Z,69.07
2024-01-14T08:07:42.959Z,69.30
2024-01-14T08:10:11.772Z,68.99
2024-01-14T08:12:42.152Z,68.85
2024-01-14T08:15:11.524Z,69.06
2024-01-14T08:17:40.096Z,69.05
2024-01-14T08:20:11.378Z,69.30
2024-01-14T08:22:41.112Z,69.46
2024-01-14T08:25:10.875Z,69.43
2024-01-14T08:27:39.848Z,68.86
2024-01-14T08:30:09.056Z,68.64
2024-01-14T08:32:37.674Z,68.69
2024-01-14T08:35:06.693Z,68.59
2024-01-14T08:37:35.191Z,68.20
2024-01-14T08:40:04.163Z,67.74
2024-01-14T08:42:32.426Z,68.06
2024-01-14T08:45:00.886Z,67.20
2024-01-14T08:47:29.168Z,66.08
2024-01-14T08:49:57.752Z,64.26
2024-01-14T08:52:26.122Z,63.84
2024-01-14T08:54:55.717Z,63.91
2024-01-14T08:57:25.426Z,64.26
2024-01-14T08:59:53.949Z,63.87
2024-01-14T09:02:22.735Z,62.89
2024-01-14T09:04:51.208Z,62.74
2024-01-14T09:07:19.781Z,63.18
2024-01-14T09:09:49.361Z,62.65
2024-01-14T09:12:17.997Z,62.37
2024-01-14T09:14:46.254Z,62.05
2024-01-14T09:17:14.525Z,62.14
2024-01-14T09:19:42.777Z,62.08
2024-01-14T09:22:11.191Z,61.48
2024-01-14T09:24:45.098Z,61.14
2024-01-14T09:27:17.326Z,60.36
2024-01-14T09:29:45.711Z,60.57
2024-01-14T09:32:13.820Z,60.00
2024-01-14T09:34:42.368Z,60.39
2024-01-14T09:37:11.217Z,60.60
2024-01-14T09:39:39.999Z,59.63
2024-01-14T09:42:38.475Z,59.34
2024-01-14T09:45:07.677Z,58.57
2024-01-14T09:47:36.738Z,59.16
2024-01-14T09:50:07.972Z,58.43
2024-01-14T09:52:38.755Z,59.09
2024-01-14T09:55:07.717Z,59.47
2024-01-14T09:57:37.063Z,58.67
2024-01-14T10:00:06.853Z,57.67
2024-01-14T10:02:35.614Z,57.82
2024-01-14T10:05:04.130Z,57.00
2024-01-14T10:07:34.359Z,56.52
2024-01-14T10:10:02.846Z,56.49
2024-01-14T10:12:32.365Z,56.18
2024-01-14T10:15:02.049Z,56.13
2024-01-14T10:17:31.342Z,56.79
2024-01-14T10:20:00.022Z,54.98
2024-01-14T10:22:30.619Z,55.02
2024-01-14T10:24:58.814Z,53.47
2024-01-14T10:27:35.513Z,53.63
2024-01-14T10:30:12.912Z,51.27
2024-01-14T10:33:16.432Z,51.74
2024-01-14T10:35:32.045Z,52.50
2024-01-14T10:38:02.652Z,52.87
2024-01-14T10:40:31.537Z,52.23
2024-01-14T10:43:00.666Z,51.43
2024-01-14T10:45:32.266Z,50.93
2024-01-14T10:48:05.934Z,50.88
2024-01-14T10:50:41.998Z,50.23
2024-01-14T10:53:30.254Z,50.85
2024-01-14T10:56:03.139Z,49.10
2024-01-14T10:58:33.909Z,49.53
2024-01-14T11:01:06.395Z,50.33
2024-01-14T11:03:39.108Z,50.10
2024-01-14T11:06:08.128Z,50.48
2024-01-14T11:08:38.335Z,49.11
2024-01-14T11:11:07.249Z,49.80
2024-01-14T11:14:19.509Z,49.09
2024-01-14T11:17:00.604Z,49.91
2024-01-14T11:19:37.235Z,49.86
2024-01-14T11:22:29.274Z,49.55
2024-01-14T11:25:05.294Z,48.74
2024-01-14T11:27:35.799Z,49.05
2024-01-14T11:30:04.596Z,48.77
2024-01-14T11:32:33.148Z,49.52
2024-01-14T11:35:03.785Z,49.71
2024-01-14T11:37:39.323Z,50.11
2024-01-14T11:40:07.727Z,50.12
2024-01-14T11:42:37.037Z,50.32
2024-01-14T11:45:29.251Z,50.95
2024-01-14T11:48:03.682Z,52.32
2024-01-14T11:50:33.835Z,52.25
2024-01-14T11:53:05.908Z,51.74
2024-01-14T11:55:35.274Z,51.79
2024-01-14T11:58:10.968Z,52.47
2024-01-14T12:00:41.781Z,52.69
2024-01-14T12:03:15.946Z,53.37
2024-01-14T12:05:45.922Z,53.79
2024-01-14T12:08:15.227Z,54.65
2024-01-14T12:10:43.679Z,54.61
2024-01-14T12:13:12.043Z,54.65
2024-01-14T12:15:44.529Z,54.86
2024-01-14T12:18:17.087Z,55.48
2024-01-14T12:20:45.794Z,55.48
2024-01-14T12:23:14.645Z,55.13
2024-01-14T12:25:45.562Z,55.53
2024-01-14T12:28:14.082Z,55.41
2024-01-14T12:30:42.427Z,55.88
2024-01-14T12:33:14.911Z,55.70
2024-01-14T12:35:43.647Z,56.02
2024-01-14T12:38:14.886Z,55.82
2024-01-14T12:40:45.567Z,56.20
2024-01-14T12:43:14.393Z,56.79
2024-01-14T12:45:50.645Z,56.24
2024-01-14T12:48:23.660Z,56.41
2024-01-14T12:50:59.297Z,57.05
2024-01-14T12:53:30.067Z,56.55
2024-01-14T12:56:28.212Z,56.52
2024-01-14T12:58:56.583Z,56.76
2024-01-14T13:01:28.884Z,56.96
2024-01-14T13:04:00.516Z,56.97
2024-01-14T13:06:28.861Z,57.48
2024-01-14T13:08:57.570Z,57.87
2024-01-14T13:11:28.290Z,57.88
2024-01-14T13:13:56.695Z,58.14
2024-01-14T13:16:25.915Z,58.31
2024-01-14T13:18:57.845Z,58.41
2024-01-14T13:21:28.780Z,58.71
2024-01-14T13:24:06.213Z,58.93
2024-01-14T13:26:43.771Z,59.27
2024-01-14T13:29:13.484Z,59.48
2024-01-14T13:31:44.779Z,59.58
2024-01-14T13:34:15.224Z,59.80
2024-01-14T13:36:43.867Z,59.68
2024-01-14T13:39:12.448Z,59.58
2024-01-14T13:41:43.325Z,59.54
2024-01-14T13:44:16.763Z,59.63
2024-01-14T13:46:49.284Z,60.20
2024-01-14T13:49:17.771Z,60.41
2024-01-14T13:51:52.226Z,60.93
2024-01-14T13:54:20.547Z,60.74
2024-01-14T13:56:51.911Z,60.62
2024-01-14T13:59:23.735Z,60.62
2024-01-14T14:01:53.610Z,60.68
2024-01-14T14:06:53.288Z,60.38
2024-01-14T14:09:21.678Z,60.78
2024-01-14T14:11:50.204Z,61.35
2024-01-14T14:14:18.402Z,60.97
2024-01-14T14:16:49.164Z,61.12
2024-01-14T14:19:19.053Z,60.65
2024-01-14T14:21:58.109Z,61.29
2024-01-14T14:24:32.006Z,60.97
2024-01-14T14:27:00.632Z,61.37
2024-01-14T14:29:29.367Z,61.45
2024-01-14T14:31:58.128Z,61.79
2024-01-14T14:34:27.365Z,61.58
2024-01-14T14:36:56.154Z,61.65
2024-01-14T14:39:27.828Z,62.02
2024-01-14T14:41:58.569Z,62.42
2024-01-14T14:44:27.156Z,62.49
2024-01-14T14:46:57.411Z,62.59
2024-01-14T14:49:25.875Z,62.90
2024-01-14T14:51:59.830Z,63.01
2024-01-14T14:54:30.067Z,63.18
2024-01-14T14:56:58.588Z,63.08
2024-01-14T14:59:26.806Z,63.46
2024-01-14T15:01:59.351Z,63.68
2024-01-14T15:04:29.809Z,63.80
2024-01-14T15:07:00.355Z,63.77
2024-01-14T15:09:28.781Z,64.04
2024-01-14T15:11:57.046Z,64.34
2024-01-14T15:14:25.519Z,64.39
2024-01-14T15:16:58.756Z,64.13
2024-01-14T15:19:29.494Z,64.65
2024-01-14T15:22:02.516Z,64.95
2024-01-14T15:24:33.946Z,64.95
2024-01-14T15:27:02.258Z,65.09
2024-01-14T15:29:35.480Z,64.95
2024-01-14T15:32:06.112Z,64.86
2024-01-14T15:34:34.790Z,65.33
2024-01-14T15:37:03.495Z,65.17
2024-01-14T15:39:39.277Z,65.33
2024-01-14T15:42:07.954Z,65.54
2024-01-14T15:44:37.291Z,65.32
2024-01-14T15:47:05.612Z,65.65
2024-01-14T15:49:35.431Z,65.59
2024-01-14T15:52:05.409Z,65.35
2024-01-14T15:54:33.591Z,65.23
2024-01-14T15:57:08.245Z,65.30
2024-01-14T15:59:36.920Z,65.53
2024-01-14T16:02:05.290Z,65.55
2024-01-14T16:04:33.613Z,65.96
2024-01-14T16:07:04.545Z,66.03
2024-01-14T16:09:33.273Z,65.95
2024-01-14T16:12:03.943Z,66.12
2024-01-14T16:14:33.235Z,65.99
2024-01-14T16:17:13.720Z,65.92
2024-01-14T16:19:45.678Z,66.19
2024-01-14T16:22:13.958Z,66.12
2024-01-14T16:24:45.013Z,66.14
2024-01-14T16:27:13.564Z,65.74
2024-01-14T16:29:41.673Z,65.61
2024-01-14T16:32:11.018Z,65.89
2024-01-14T16:34:39.991Z,65.63
2024-01-14T16:37:08.883Z,65.66
2024-01-14T16:39:37.383Z,65.72
2024-01-14T16:42:09.286Z,65.93
2024-01-14T16:44:38.856Z,65.73
2024-01-14T16:47:06.999Z,65.64
2024-01-14T16:49:35.271Z,65.92
2024-01-14T16:52:04.581Z,65.80
2024-01-14T16:54:35.978Z,65.80
2024-01-14T16:57:05.503Z,65.99
2024-01-14T16:59:33.979Z,65.82
2024-01-14T17:02:02.562Z,65.70
2024-01-14T17:04:33.187Z,66.10
2024-01-14T17:07:01.875Z,65.95
2024-01-14T17:09:33.267Z,66.37
2024-01-14T17:12:02.383Z,66.34
2024-01-14T17:14:33.915Z,66.90
2024-01-14T17:17:03.039Z,67.14
2024-01-14T17:19:33.326Z,67.19
2024-01-14T17:22:01.778Z,67.53
2024-01-14T17:24:35.098Z,67.47
2024-01-14T17:27:06.223Z,67.65
2024-01-14T17:29:34.939Z,67.46
2024-01-14T17:32:09.700Z,67.53
2024-01-14T17:34:42.340Z,67.84
2024-01-14T17:40:00.594Z,67.81
2024-01-14T17:42:36.355Z,68.04
2024-01-14T17:45:21.758Z,68.05
2024-01-14T17:47:50.427Z,68.13
2024-01-14T17:50:30.460Z,68.17
2024-01-14T17:53:05.543Z,67.74
2024-01-14T17:55:42.416Z,67.63
2024-01-14T17:58:11.318Z,67.81
2024-01-14T18:00:46.546Z,68.02
2024-01-14T18:03:23.312Z,68.03
2024-01-14T18:05:54.937Z,68.04
2024-01-14T18:08:25.795Z,67.98
2024-01-14T18:11:11.829Z,68.23
2024-01-14T18:13:40.931Z,68.03
2024-01-14T18:16:09.223Z,67.94
2024-01-14T18:18:43.418Z,68.07
2024-01-14T18:21:16.791Z,67.97
2024-01-14T18:23:45.281Z,67.94
2024-01-14T18:26:20.510Z,67.99
2024-01-14T18:28:51.780Z,67.96
2024-01-14T18:31:29.099Z,67.52
2024-01-14T18:34:08.953Z,67.49
2024-01-14T18:36:37.729Z,67.71
2024-01-14T18:39:07.513Z,67.69
2024-01-14T18:41:39.961Z,67.91
2024-01-14T18:44:25.786Z,67.57
2024-01-14T18:47:01.949Z,67.80
2024-01-14T18:49:30.281Z,67.73
2024-01-14T18:52:01.707Z,67.68
2024-01-14T18:54:36.209Z,67.79
2024-01-14T18:57:18.138Z,67.93
2024-01-14T18:59:51.128Z,67.97
2024-01-14T19:02:20.556Z,67.67
2024-01-14T19:04:53.913Z,67.66
2024-01-14T19:07:23.250Z,67.51
2024-01-14T19:09:57.889Z,67.30
2024-01-14T19:12:33.116Z,67.31
2024-01-14T19:15:05.085Z,67.38
2024-01-14T19:17:38.455Z,67.36
2024-01-14T19:20:12.871Z,67.54
2024-01-14T19:22:49.227Z,67.55
2024-01-14T19:25:30.489Z,67.61
2024-01-14T19:28:00.042Z,68.03
2024-01-14T19:30:31.743Z,67.95
2024-01-14T19:33:02.117Z,67.63
2024-01-14T19:35:35.909Z,67.60
2024-01-14T19:38:07.562Z,67.97
2024-01-14T19:40:42.387Z,68.00
2024-01-14T19:43:30.398Z,67.99
2024-01-14T19:46:05.502Z,68.22
2024-01-14T19:48:44.011Z,68.23
2024-01-14T19:51:13.436Z,68.05
2024-01-14T19:53:45.096Z,67.94
2024-01-14T19:56:29.624Z,68.28
2024-01-14T19:58:59.601Z,68.46
2024-01-14T20:01:37.014Z,68.47
2024-01-14T20:04:06.722Z,68.80
2024-01-14T20:06:50.374Z,68.72
2024-01-14T20:09:25.467Z,68.87
2024-01-14T20:12:00.957Z,68.87
2024-01-14T20:14:32.747Z,68.81
2024-01-14T20:17:03.702Z,69.03
2024-01-14T20:19:41.920Z,68.72
2024-01-14T20:22:12.974Z,68.64
2024-01-14T20:24:41.368Z,68.61
2024-01-14T20:27:10.896Z,68.85
2024-01-14T20:29:41.359Z,68.78
2024-01-14T20:32:12.093Z,68.80
2024-01-14T20:34:46.204Z,69.02
2024-01-14T20:37:27.368Z,68.77
2024-01-14T20:40:03.725Z,68.46
2024-01-14T20:42:33.379Z,68.55
2024-01-14T20:45:01.728Z,68.48
2024-01-14T20:47:38.687Z,68.06
2024-01-14T20:50:18.553Z,68.10
2024-01-14T20:52:51.534Z,68.27
2024-01-14T20:55:20.873Z,68.36
2024-01-14T20:57:54.632Z,68.58
2024-01-14T21:00:25.550Z,68.61
2024-01-14T21:02:54.196Z,68.51
2024-01-14T21:05:23.260Z,68.42
2024-01-14T21:07:56.860Z,68.79
2024-01-14T21:10:28.080Z,68.57
2024-01-14T21:12:57.872Z,68.74
2024-01-14T21:15:26.958Z,69.04
2024-01-14T21:17:55.669Z,68.81
2024-01-14T21:20:24.161Z,68.88
2024-01-14T21:22:52.331Z,68.83
2024-01-14T21:25:23.270Z,68.98
2024-01-14T21:27:58.866Z,69.01
2024-01-14T21:30:30.212Z,68.99
2024-01-14T21:33:08.820Z,68.86
2024-01-14T21:35:37.582Z,68.79
2024-01-14T21:38:06.454Z,68.79
2024-01-14T21:40:34.914Z,68.77
2024-01-14T21:43:05.734Z,68.65
2024-01-14T21:45:33.958Z,68.66
2024-01-14T21:48:05.196Z,68.56
2024-01-14T21:50:35.691Z,68.48
2024-01-14T21:53:03.916Z,68.32
2024-01-14T21:55:42.896Z,68.31
2024-01-14T21:58:11.753Z,68.49
2024-01-14T22:00:40.552Z,68.83
2024-01-14T22:03:09.742Z,68.51
2024-01-14T22:05:38.480Z,68.85
2024-01-14T22:08:06.976Z,68.75
2024-01-14T22:10:35.228Z,68.58
2024-01-14T22:13:03.569Z,68.24
2024-01-14T22:15:32.148Z,68.42
2024-01-14T22:18:02.542Z,68.37
2024-01-14T22:20:30.823Z,68.28
2024-01-14T22:22:59.315Z,68.19
2024-01-14T22:25:27.487Z,68.32
2024-01-14T22:27:55.701Z,68.17
2024-01-14T22:30:24.184Z,68.40
2024-01-14T22:32:52.971Z,68.58
2024-01-14T22:35:21.631Z,68.63
2024-01-14T22:37:49.835Z,68.62
2024-01-14T22:40:18.601Z,68.67
2024-01-14T22:42:46.872Z,68.60
2024-01-14T22:45:15.591Z,68.58
2024-01-14T22:47:44.075Z,68.57
2024-01-14T22:50:12.565Z,68.49
2024-01-14T22:52:40.952Z,68.52
2024-01-14T22:55:10.082Z,68.76
2024-01-14T22:57:38.523Z,68.94
2024-01-14T23:00:09.053Z,68.80
2024-01-14T23:02:37.905Z,68.44
2024-01-14T23:05:07.000Z,68.20
2024-01-14T23:07:35.134Z,68.10
2024-01-14T23:10:03.334Z,68.18
2024-01-14T23:12:31.529Z,68.15
2024-01-14T23:14:59.694Z,68.19
2024-01-14T23:17:27.901Z,68.33
2024-01-14T23:19:56.221Z,68.62
2024-01-14T23:22:25.240Z,68.68
2024-01-14T23:24:53.391Z,68.81
2024-01-14T23:27:21.883Z,68.80
2024-01-14T23:29:50.421Z,68.61
2024-01-14T23:32:18.939Z,68.49
2024-01-14T23:34:47.444Z,68.26
2024-01-14T23:37:15.911Z,68.14
2024-01-14T23:39:44.416Z,67.88
2024-01-14T23:42:12.941Z,67.91
2024-01-14T23:44:41.462Z,68.09
2024-01-14T23:47:09.857Z,68.04
2024-01-14T23:49:38.377Z,68.15
2024-01-14T23:52:07.435Z,68.40
2024-01-14T23:54:35.630Z,68.23
2024-01-14T23:57:05.709Z,68.12
2024-01-14T23:59:33.937Z,68.20
